createdAt,value
2023-04-22T00:06:14.702Z,3.15
2023-04-22T00:08:42.216Z,3.47
2023-04-22T00:11:09.823Z,4.10
2023-04-22T00:13:37.892Z,4.70
2023-04-22T00:16:05.800Z,4.70
2023-04-22T00:18:36.240Z,4.70
2023-04-22T00:21:06.824Z,4.38
2023-04-22T00:23:35.167Z,4.68
2023-04-22T00:26:03.073Z,3.05
2023-04-22T00:28:30.903Z,2.50
2023-04-22T00:30:58.929Z,3.80
2023-04-22T00:33:26.682Z,2.60
2023-04-22T00:35:55.046Z,2.67
2023-04-22T00:38:24.344Z,1.90
2023-04-22T00:40:52.139Z,1.50
2023-04-22T00:43:19.709Z,1.42
2023-04-22T00:45:48.604Z,1.75
2023-04-22T00:48:17.590Z,2.03
2023-04-22T00:50:45.703Z,1.67
2023-04-22T00:53:13.264Z,2.10
2023-04-22T00:55:41.016Z,3.60
2023-04-22T00:58:11.949Z,3.92
2023-04-22T01:00:39.776Z,4.20
2023-04-22T01:03:08.129Z,2.60
2023-04-22T01:05:37.135Z,3.42
2023-04-22T01:08:04.786Z,3.30
2023-04-22T01:10:32.442Z,3.63
2023-04-22T01:13:00.515Z,4.32
2023-04-22T01:15:28.915Z,4.40
2023-04-22T01:17:58.916Z,3.60
2023-04-22T01:20:29.830Z,3.60
2023-04-22T01:22:59.234Z,3.83
2023-04-22T01:25:27.337Z,2.53
2023-04-22T01:27:57.334Z,2.47
2023-04-22T01:30:24.909Z,2.65
2023-04-22T01:32:53.520Z,3.10
2023-04-22T01:35:22.370Z,3.57
2023-04-22T01:37:49.867Z,3.70
2023-04-22T01:40:20.037Z,2.75
2023-04-22T01:42:48.787Z,2.08
2023-04-22T01:45:18.404Z,2.17
2023-04-22T01:47:46.077Z,2.15
2023-04-22T01:50:14.758Z,2.42
2023-04-22T01:52:42.376Z,2.38
2023-04-22T01:55:10.190Z,3.20
2023-04-22T01:57:38.205Z,3.58
2023-04-22T02:00:06.864Z,4.57
2023-04-22T02:02:40.507Z,4.72
2023-04-22T02:05:08.609Z,4.93
2023-04-22T02:07:39.124Z,4.35
2023-04-22T02:10:09.615Z,4.68
2023-04-22T02:12:37.697Z,4.70
2023-04-22T02:15:05.808Z,5.30
2023-04-22T02:17:34.465Z,5.45
2023-04-22T02:20:03.852Z,5.35
2023-04-22T02:22:33.404Z,5.80
2023-04-22T02:25:01.802Z,5.38
2023-04-22T02:27:29.643Z,6.00
2023-04-22T02:29:58.584Z,4.00
2023-04-22T02:32:27.663Z,3.97
2023-04-22T02:34:57.690Z,3.63
2023-04-22T02:37:25.623Z,3.38
2023-04-22T02:39:54.923Z,3.57
2023-04-22T02:42:22.546Z,3.78
2023-04-22T02:44:50.239Z,4.50
2023-04-22T02:47:18.575Z,4.93
2023-04-22T02:49:47.382Z,4.82
2023-04-22T02:52:15.760Z,4.68
2023-04-22T02:54:46.055Z,4.25
2023-04-22T02:57:14.802Z,5.50
2023-04-22T02:59:42.681Z,5.55
2023-04-22T03:02:12.430Z,5.90
2023-04-22T03:05:03.662Z,6.57
2023-04-22T03:07:32.289Z,5.97
2023-04-22T03:10:00.676Z,5.70
2023-04-22T03:12:29.083Z,6.82
2023-04-22T03:14:59.237Z,6.07
2023-04-22T03:17:31.047Z,5.60
2023-04-22T03:20:02.131Z,9.30
2023-04-22T03:22:30.596Z,11.55
2023-04-22T03:25:00.439Z,14.20
2023-04-22T03:27:29.654Z,14.98
2023-04-22T03:29:59.453Z,14.57
2023-04-22T03:32:27.230Z,7.32
2023-04-22T03:35:11.148Z,6.50
2023-04-22T03:37:38.891Z,5.40
2023-04-22T03:40:08.511Z,5.95
2023-04-22T03:42:36.562Z,6.50
2023-04-22T03:45:04.853Z,8.23
2023-04-22T03:47:37.042Z,8.05
2023-04-22T03:50:16.476Z,12.43
2023-04-22T03:52:45.946Z,14.57
2023-04-22T03:55:18.172Z,15.93
2023-04-22T03:57:47.281Z,15.30
2023-04-22T04:00:15.164Z,15.85
2023-04-22T04:02:45.191Z,22.63
2023-04-22T04:05:17.184Z,22.80
2023-04-22T04:07:45.242Z,23.05
2023-04-22T04:10:14.065Z,18.08
2023-04-22T04:12:42.298Z,16.48
2023-04-22T04:15:10.115Z,15.70
2023-04-22T04:17:37.838Z,18.58
2023-04-22T04:20:07.225Z,21.23
2023-04-22T04:22:36.534Z,19.77
2023-04-22T04:25:06.936Z,18.67
2023-04-22T04:27:39.603Z,14.52
2023-04-22T04:30:08.386Z,14.15
2023-04-22T04:32:46.079Z,13.57
2023-04-22T04:35:18.567Z,13.85
2023-04-22T04:37:54.514Z,13.98
2023-04-22T04:40:22.597Z,14.52
2023-04-22T04:42:58.080Z,16.15
2023-04-22T04:45:33.166Z,17.90
2023-04-22T04:48:02.983Z,18.08
2023-04-22T04:50:36.473Z,20.70
2023-04-22T04:53:04.970Z,23.98
2023-04-22T04:55:38.604Z,25.15
2023-04-22T04:58:12.129Z,26.02
2023-04-22T05:00:39.841Z,26.17
2023-04-22T05:03:08.651Z,28.58
2023-04-22T05:05:37.243Z,27.98
2023-04-22T05:08:05.017Z,29.20
2023-04-22T05:10:35.173Z,28.35
2023-04-22T05:13:04.375Z,27.27
2023-04-22T05:15:33.800Z,27.88
2023-04-22T05:18:01.775Z,28.30
2023-04-22T05:20:29.629Z,31.50
2023-04-22T05:22:58.221Z,33.83
2023-04-22T05:25:26.080Z,33.72
2023-04-22T05:28:02.343Z,36.25
2023-04-22T05:30:36.282Z,34.33
2023-04-22T05:33:13.190Z,35.17
2023-04-22T05:35:40.957Z,32.45
2023-04-22T05:38:11.229Z,30.13
2023-04-22T05:40:40.668Z,28.00
2023-04-22T05:43:10.874Z,29.90
2023-04-22T05:45:42.552Z,31.40
2023-04-22T05:48:13.107Z,32.42
2023-04-22T05:50:49.752Z,32.00
2023-04-22T05:53:19.393Z,31.37
2023-04-22T05:55:48.222Z,33.20
2023-04-22T05:58:15.919Z,33.80
2023-04-22T06:00:53.074Z,33.58
2023-04-22T06:03:51.283Z,34.60
2023-04-22T06:06:19.628Z,34.88
2023-04-22T06:08:49.514Z,34.20
2023-04-22T06:11:18.476Z,34.03
2023-04-22T06:13:45.876Z,34.15
2023-04-22T06:16:13.591Z,35.17
2023-04-22T06:18:43.490Z,34.40
2023-04-22T06:21:13.040Z,35.08
2023-04-22T06:23:41.763Z,33.88
2023-04-22T06:26:10.614Z,34.20
2023-04-22T06:28:38.723Z,32.30
2023-04-22T06:31:11.989Z,31.20
2023-04-22T06:33:40.390Z,29.35
2023-04-22T06:36:08.956Z,30.00
2023-04-22T06:38:37.905Z,30.08
2023-04-22T06:41:27.931Z,31.85
2023-04-22T06:44:01.336Z,31.08
2023-04-22T06:46:59.210Z,29.83
2023-04-22T06:49:51.056Z,28.73
2023-04-22T06:52:25.824Z,29.45
2023-04-22T06:54:57.671Z,27.90
2023-04-22T06:57:26.080Z,27.73
2023-04-22T06:59:53.518Z,26.92
2023-04-22T07:02:22.980Z,24.33
2023-04-22T07:04:50.919Z,25.20
2023-04-22T07:07:19.627Z,23.73
2023-04-22T07:09:49.326Z,22.95
2023-04-22T07:12:18.283Z,23.97
2023-04-22T07:14:50.417Z,22.48
2023-04-22T07:17:22.433Z,23.30
2023-04-22T07:19:50.539Z,22.52
2023-04-22T07:22:19.075Z,23.02
2023-04-22T07:24:49.087Z,21.83
2023-04-22T07:27:19.616Z,22.63
2023-04-22T07:32:17.834Z,21.75
2023-04-22T07:34:45.807Z,20.20
2023-04-22T07:37:13.526Z,20.88
2023-04-22T07:39:42.347Z,19.70
2023-04-22T07:42:10.053Z,19.45
2023-04-22T07:44:40.688Z,18.88
2023-04-22T07:49:36.457Z,17.25
2023-04-22T07:52:04.339Z,17.67
2023-04-22T07:54:31.955Z,17.35
2023-04-22T07:57:00.186Z,17.17
2023-04-22T07:59:28.266Z,18.10
2023-04-22T08:01:56.590Z,17.70
2023-04-22T08:04:24.645Z,17.15
2023-04-22T08:06:52.513Z,17.50
2023-04-22T08:09:20.305Z,16.63
2023-04-22T08:11:49.001Z,16.75
2023-04-22T08:14:17.624Z,15.43
2023-04-22T08:16:45.267Z,16.10
2023-04-22T08:19:12.830Z,15.45
2023-04-22T08:21:40.797Z,15.93
2023-04-22T08:24:08.579Z,15.07
2023-04-22T08:26:37.633Z,14.48
2023-04-22T08:29:06.057Z,14.55
2023-04-22T08:31:35.441Z,14.45
2023-04-22T08:34:03.211Z,14.30
2023-04-22T08:36:32.084Z,13.52
2023-04-22T08:38:59.968Z,13.48
2023-04-22T08:41:28.445Z,12.82
2023-04-22T08:43:56.919Z,12.90
2023-04-22T08:46:24.653Z,12.70
2023-04-22T08:48:52.597Z,11.40
2023-04-22T08:51:20.299Z,12.05
2023-04-22T08:53:54.757Z,11.82
2023-04-22T08:56:22.556Z,11.10
2023-04-22T08:58:50.733Z,11.57
2023-04-22T09:01:19.858Z,11.30
2023-04-22T09:03:53.337Z,11.85
2023-04-22T09:06:22.654Z,10.75
2023-04-22T09:08:51.315Z,11.65
2023-04-22T09:11:19.886Z,10.48
2023-04-22T09:13:53.534Z,10.65
2023-04-22T09:16:21.372Z,11.02
2023-04-22T09:18:49.667Z,10.98
2023-04-22T09:21:18.733Z,9.90
2023-04-22T09:23:50.708Z,10.82
2023-04-22T09:26:22.577Z,10.95
2023-04-22T09:28:55.332Z,10.32
2023-04-22T09:31:23.605Z,10.65
2023-04-22T09:33:53.458Z,10.70
2023-04-22T09:36:31.402Z,10.50
2023-04-22T09:38:59.943Z,10.95
2023-04-22T09:41:28.712Z,10.60
2023-04-22T09:43:58.131Z,11.35
2023-04-22T09:46:27.493Z,11.65
2023-04-22T09:49:00.404Z,10.80
2023-04-22T09:51:31.209Z,10.57
2023-04-22T09:53:59.989Z,10.52
2023-04-22T09:56:51.102Z,10.75
2023-04-22T09:59:30.118Z,11.23
2023-04-22T10:02:00.944Z,10.38
2023-04-22T10:04:30.140Z,10.30
2023-04-22T10:06:58.063Z,9.73
2023-04-22T10:09:26.419Z,9.27
2023-04-22T10:11:55.175Z,10.07
2023-04-22T10:14:27.211Z,10.43
2023-04-22T10:17:00.321Z,9.70
2023-04-22T10:19:28.020Z,9.13
2023-04-22T10:21:58.170Z,10.07
2023-04-22T10:26:59.977Z,9.52
2023-04-22T10:29:30.929Z,10.18
2023-04-22T10:32:13.883Z,10.00
2023-04-22T10:34:41.622Z,9.27
2023-04-22T10:37:11.958Z,9.70
2023-04-22T10:39:43.392Z,9.95
2023-04-22T10:42:19.001Z,8.82
2023-04-22T10:44:49.124Z,8.23
2023-04-22T10:47:27.627Z,9.68
2023-04-22T10:50:13.945Z,9.65
2023-04-22T10:52:42.622Z,8.73
2023-04-22T10:55:10.510Z,8.45
2023-04-22T10:57:48.919Z,8.25
2023-04-22T11:00:23.067Z,8.15
2023-04-22T11:02:58.976Z,6.72
2023-04-22T11:05:27.892Z,7.22
2023-04-22T11:07:56.462Z,6.25
2023-04-22T11:10:44.723Z,6.30
2023-04-22T11:13:15.593Z,5.80
2023-04-22T11:15:50.217Z,6.03
2023-04-22T11:18:22.309Z,6.43
2023-04-22T11:20:51.373Z,6.82
2023-04-22T11:23:31.489Z,6.80
2023-04-22T11:26:00.920Z,7.43
2023-04-22T11:28:29.219Z,7.57
2023-04-22T11:31:03.826Z,7.60
2023-04-22T11:33:33.193Z,7.70
2023-04-22T11:36:01.150Z,7.70
2023-04-22T11:38:29.380Z,7.65
2023-04-22T11:41:00.679Z,7.57
2023-04-22T11:43:29.150Z,7.40
2023-04-22T11:45:57.666Z,7.55
2023-04-22T11:48:25.869Z,7.05
2023-04-22T11:51:09.133Z,7.55
2023-04-22T11:53:39.625Z,7.07
2023-04-22T11:56:07.178Z,7.32
2023-04-22T11:58:41.281Z,7.20
2023-04-22T12:01:14.173Z,7.70
2023-04-22T12:03:43.236Z,7.70
2023-04-22T12:06:11.286Z,8.38
2023-04-22T12:08:42.403Z,7.75
2023-04-22T12:11:12.753Z,8.20
2023-04-22T12:13:43.347Z,8.18
2023-04-22T12:16:12.604Z,8.48
2023-04-22T12:18:41.142Z,8.77
2023-04-22T12:21:11.821Z,8.95
2023-04-22T12:23:47.906Z,9.45
2023-04-22T12:26:17.635Z,9.60
2023-04-22T12:28:47.507Z,8.95
2023-04-22T12:31:16.600Z,9.50
2023-04-22T12:33:45.050Z,9.82
2023-04-22T12:36:13.002Z,9.55
2023-04-22T12:38:41.577Z,9.50
2023-04-22T12:41:10.065Z,9.38
2023-04-22T12:43:39.413Z,8.18
2023-04-22T12:46:08.128Z,7.97
2023-04-22T12:48:38.879Z,7.75
2023-04-22T12:51:07.220Z,7.28
2023-04-22T12:53:36.981Z,7.35
2023-04-22T12:56:04.699Z,7.95
2023-04-22T12:58:32.349Z,7.78
2023-04-22T13:01:02.218Z,7.63
2023-04-22T13:03:30.047Z,8.48
2023-04-22T13:05:57.964Z,8.50
2023-04-22T13:08:26.264Z,8.57
2023-04-22T13:10:54.250Z,8.98
2023-04-22T13:13:22.064Z,9.40
2023-04-22T13:15:54.097Z,9.90
2023-04-22T13:18:23.727Z,9.88
2023-04-22T13:20:51.685Z,10.43
2023-04-22T13:23:22.146Z,10.60
2023-04-22T13:25:56.958Z,10.20
2023-04-22T13:28:28.022Z,11.02
2023-04-22T13:30:59.147Z,11.18
2023-04-22T13:33:26.707Z,12.43
2023-04-22T13:35:54.697Z,12.77
2023-04-22T13:38:22.596Z,12.55
2023-04-22T13:40:50.430Z,12.05
2023-04-22T13:43:19.131Z,12.35
2023-04-22T13:45:48.880Z,13.63
2023-04-22T13:48:18.856Z,13.55
2023-04-22T13:50:48.062Z,13.77
2023-04-22T13:53:15.685Z,14.77
2023-04-22T13:55:43.489Z,13.73
2023-04-22T13:58:12.239Z,15.30
2023-04-22T14:00:40.148Z,14.30
2023-04-22T14:03:14.332Z,14.52
2023-04-22T14:05:42.858Z,14.68
2023-04-22T14:08:19.865Z,14.00
2023-04-22T14:10:49.611Z,14.18
2023-04-22T14:13:18.529Z,13.98
2023-04-22T14:15:54.517Z,13.88
2023-04-22T14:18:25.015Z,13.88
2023-04-22T14:23:33.394Z,14.23
2023-04-22T14:26:01.994Z,14.32
2023-04-22T14:28:30.781Z,14.13
2023-04-22T14:30:58.482Z,14.93
2023-04-22T14:33:28.237Z,14.27
2023-04-22T14:35:58.279Z,14.93
2023-04-22T14:38:25.932Z,13.93
2023-04-22T14:40:53.698Z,14.25
2023-04-22T14:43:21.359Z,14.32
2023-04-22T14:45:49.907Z,14.43
2023-04-22T14:48:18.545Z,15.00
2023-04-22T14:50:46.286Z,15.30
2023-04-22T14:53:15.280Z,14.13
2023-04-22T14:55:42.954Z,14.82
2023-04-22T14:58:10.909Z,14.60
2023-04-22T15:00:39.708Z,13.85
2023-04-22T15:03:08.545Z,13.32
2023-04-22T15:05:36.324Z,13.70
2023-04-22T15:08:04.399Z,14.13
2023-04-22T15:10:34.610Z,13.57
2023-04-22T15:13:02.750Z,14.00
2023-04-22T15:15:31.009Z,14.25
2023-04-22T15:17:58.688Z,14.48
2023-04-22T15:20:26.864Z,13.70
2023-04-22T15:22:55.603Z,14.48
2023-04-22T15:25:24.944Z,14.02
2023-04-22T15:27:53.350Z,13.63
2023-04-22T15:30:21.083Z,13.32
2023-04-22T15:32:49.853Z,13.45
2023-04-22T15:35:22.992Z,13.20
2023-04-22T15:37:52.906Z,14.10
2023-04-22T15:40:21.213Z,14.68
2023-04-22T15:42:50.744Z,14.55
2023-04-22T15:45:19.822Z,13.17
2023-04-22T15:47:52.729Z,12.75
2023-04-22T15:50:23.568Z,12.20
2023-04-22T15:52:51.358Z,11.05
2023-04-22T15:55:20.940Z,10.27
2023-04-22T15:57:53.050Z,9.50
2023-04-22T16:00:22.186Z,9.82
2023-04-22T16:02:55.684Z,9.45
2023-04-22T16:05:25.322Z,9.63
2023-04-22T16:07:53.947Z,9.32
2023-04-22T16:10:21.842Z,8.38
2023-04-22T16:12:51.142Z,8.18
2023-04-22T16:15:24.507Z,7.70
2023-04-22T16:17:52.383Z,8.68
2023-04-22T16:20:20.391Z,7.90
2023-04-22T16:22:50.977Z,7.45
2023-04-22T16:25:22.322Z,7.30
2023-04-22T16:27:50.274Z,7.60
2023-04-22T16:30:19.338Z,6.88
2023-04-22T16:32:48.145Z,5.72
2023-04-22T16:35:17.669Z,6.50
2023-04-22T16:37:45.437Z,6.47
2023-04-22T16:40:13.463Z,6.22
2023-04-22T16:42:41.613Z,5.95
2023-04-22T16:45:11.310Z,6.18
2023-04-22T16:47:39.089Z,6.22
2023-04-22T16:50:07.358Z,5.05
2023-04-22T16:52:35.015Z,5.25
2023-04-22T16:55:02.873Z,5.03
2023-04-22T16:57:30.663Z,7.97
2023-04-22T16:59:59.096Z,7.85
2023-04-22T17:02:26.788Z,10.75
2023-04-22T17:04:54.613Z,16.13
2023-04-22T17:07:22.412Z,16.70
2023-04-22T17:09:51.551Z,16.45
2023-04-22T17:12:20.140Z,16.58
2023-04-22T17:14:48.754Z,16.58
2023-04-22T17:17:17.813Z,16.83
2023-04-22T17:19:45.609Z,17.85
2023-04-22T17:22:20.565Z,20.15
2023-04-22T17:24:50.239Z,20.33
2023-04-22T17:27:20.193Z,20.93
2023-04-22T17:29:49.022Z,21.20
2023-04-22T17:32:17.614Z,21.13
2023-04-22T17:34:45.481Z,21.73
2023-04-22T17:37:13.204Z,21.35
2023-04-22T17:39:41.995Z,22.70
2023-04-22T17:42:09.658Z,23.70
2023-04-22T17:44:37.327Z,23.70
2023-04-22T17:47:05.962Z,23.15
2023-04-22T17:49:38.008Z,23.48
2023-04-22T17:52:06.076Z,24.08
2023-04-22T17:54:33.912Z,24.25
2023-04-22T17:57:02.360Z,25.38
2023-04-22T17:59:30.590Z,24.83
2023-04-22T18:01:59.686Z,25.48
2023-04-22T18:06:56.543Z,21.38
2023-04-22T18:09:24.381Z,20.20
2023-04-22T18:11:52.011Z,19.55
2023-04-22T18:14:21.676Z,19.92
2023-04-22T18:16:49.918Z,20.00
2023-04-22T18:19:21.779Z,20.02
2023-04-22T18:21:59.702Z,21.92
2023-04-22T18:24:28.329Z,21.23
2023-04-22T18:26:55.914Z,22.02
2023-04-22T18:29:23.502Z,22.52
2023-04-22T18:31:51.211Z,21.52
2023-04-22T18:34:19.834Z,22.08
2023-04-22T18:36:48.934Z,22.52
2023-04-22T18:39:17.597Z,21.80
2023-04-22T18:41:47.160Z,22.55
2023-04-22T18:44:16.027Z,22.38
2023-04-22T18:46:44.661Z,23.58
2023-04-22T18:49:13.226Z,23.38
2023-04-22T18:51:42.434Z,24.23
2023-04-22T18:54:11.517Z,23.50
2023-04-22T18:56:42.863Z,25.00
2023-04-22T18:59:10.682Z,25.15
2023-04-22T19:01:38.297Z,25.33
2023-04-22T19:04:07.952Z,25.98
2023-04-22T19:06:35.773Z,27.45
2023-04-22T19:09:04.936Z,27.92
2023-04-22T19:11:32.984Z,29.23
2023-04-22T19:14:03.154Z,31.33
2023-04-22T19:16:31.131Z,31.17
2023-04-22T19:18:59.140Z,34.15
2023-04-22T19:21:27.212Z,36.25
2023-04-22T19:23:54.967Z,36.60
2023-04-22T19:26:23.325Z,36.85
2023-04-22T19:28:51.045Z,39.05
2023-04-22T19:31:19.905Z,40.72
2023-04-22T19:33:50.987Z,40.58
2023-04-22T19:36:19.521Z,41.47
2023-04-22T19:38:47.653Z,42.83
2023-04-22T19:41:16.442Z,41.45
2023-04-22T19:43:48.394Z,42.75
2023-04-22T19:46:17.377Z,44.13
2023-04-22T19:48:45.585Z,45.38
2023-04-22T19:51:13.780Z,45.70
2023-04-22T19:53:41.771Z,46.58
2023-04-22T19:56:09.598Z,47.65
2023-04-22T19:58:37.267Z,47.08
2023-04-22T20:01:05.581Z,46.17
2023-04-22T20:03:33.438Z,46.10
2023-04-22T20:06:01.440Z,46.88
2023-04-22T20:08:29.206Z,45.53
2023-04-22T20:10:59.099Z,44.92
2023-04-22T20:13:27.198Z,43.33
2023-04-22T20:15:54.827Z,43.53
2023-04-22T20:18:22.867Z,41.85
2023-04-22T20:20:53.210Z,43.70
2023-04-22T20:23:22.839Z,41.90
2023-04-22T20:25:51.051Z,43.67
2023-04-22T20:28:20.139Z,43.70
2023-04-22T20:30:48.989Z,42.85
2023-04-22T20:33:19.672Z,42.47
2023-04-22T20:35:50.668Z,42.92
2023-04-22T20:38:21.169Z,43.20
2023-04-22T20:40:50.895Z,42.85
2023-04-22T20:43:21.528Z,42.33
2023-04-22T20:45:50.819Z,40.30
2023-04-22T20:48:20.728Z,42.35
2023-04-22T20:50:51.082Z,40.85
2023-04-22T20:53:20.874Z,41.63
2023-04-22T20:55:50.502Z,41.97
2023-04-22T20:58:19.260Z,41.13
2023-04-22T21:00:51.260Z,41.92
2023-04-22T21:03:24.892Z,39.80
2023-04-22T21:05:52.831Z,39.13
2023-04-22T21:08:24.892Z,40.10
2023-04-22T21:10:54.093Z,42.38
2023-04-22T21:13:22.732Z,39.72
2023-04-22T21:16:03.073Z,41.75
2023-04-22T21:18:32.657Z,38.60
2023-04-22T21:21:03.043Z,39.17
2023-04-22T21:23:30.862Z,37.72
2023-04-22T21:26:00.438Z,37.67
2023-04-22T21:28:28.399Z,36.53
2023-04-22T21:30:56.640Z,38.08
2023-04-22T21:33:25.617Z,37.33
2023-04-22T21:35:53.576Z,38.03
2023-04-22T21:38:22.748Z,40.15
2023-04-22T21:40:50.578Z,41.22
2023-04-22T21:43:21.831Z,39.22
2023-04-22T21:45:49.624Z,40.00
2023-04-22T21:48:22.059Z,40.35
2023-04-22T21:50:49.844Z,39.85
2023-04-22T21:53:22.157Z,40.70
2023-04-22T21:55:50.328Z,40.97
2023-04-22T21:58:20.520Z,40.28
2023-04-22T22:00:49.330Z,38.80
2023-04-22T22:03:18.545Z,38.10
2023-04-22T22:05:52.472Z,37.55
2023-04-22T22:08:21.742Z,38.45
2023-04-22T22:10:49.741Z,38.55
2023-04-22T22:13:23.273Z,41.97
2023-04-22T22:15:51.833Z,40.38
2023-04-22T22:18:21.622Z,39.17
2023-04-22T22:20:49.842Z,41.53
2023-04-22T22:23:19.179Z,39.63
2023-04-22T22:25:49.032Z,39.67
2023-04-22T22:28:21.485Z,40.45
2023-04-22T22:30:50.186Z,41.88
2023-04-22T22:33:18.836Z,41.47
2023-04-22T22:35:48.378Z,42.17
2023-04-22T22:38:17.888Z,41.28
2023-04-22T22:40:45.613Z,43.70
2023-04-22T22:43:18.023Z,44.08
2023-04-22T22:45:48.458Z,46.92
2023-04-22T22:48:17.674Z,44.70
2023-04-22T22:50:47.536Z,45.80
2023-04-22T22:53:15.083Z,45.90
2023-04-22T22:55:42.618Z,46.63
2023-04-22T22:58:10.304Z,46.88
2023-04-22T23:00:38.357Z,44.75
2023-04-22T23:03:06.103Z,46.10
2023-04-22T23:05:33.972Z,45.58
2023-04-22T23:08:01.794Z,45.97
2023-04-22T23:10:30.072Z,45.83
2023-04-22T23:12:59.426Z,45.92
2023-04-22T23:15:27.803Z,46.30
2023-04-22T23:17:55.902Z,45.75
2023-04-22T23:20:28.675Z,48.40
2023-04-22T23:22:56.933Z,48.05
2023-04-22T23:25:24.921Z,48.38
2023-04-22T23:27:53.216Z,46.95
2023-04-22T23:30:22.567Z,46.92
2023-04-22T23:32:51.913Z,45.50
2023-04-22T23:35:22.026Z,45.53
2023-04-22T23:37:54.890Z,45.50
2023-04-22T23:40:24.751Z,45.90
2023-04-22T23:42:52.442Z,48.20
2023-04-22T23:45:19.968Z,47.63
2023-04-22T23:47:49.116Z,46.22
2023-04-22T23:50:20.269Z,47.65
2023-04-22T23:52:50.059Z,49.20
2023-04-22T23:55:20.646Z,47.78
2023-04-22T23:57:51.132Z,49.50
